createdAt,value
2019-04-03T00:02:56.686Z,47.80
2019-04-03T00:08:01.737Z,48.10
2019-04-03T00:13:06.808Z,49.00
2019-04-03T00:18:12.014Z,49.70
2019-04-03T00:23:17.226Z,51.10
2019-04-03T00:28:24.268Z,51.40
2019-04-03T00:33:30.141Z,51.80
2019-04-03T00:38:35.587Z,52.90
2019-04-03T00:43:40.360Z,53.30
2019-04-03T00:48:45.523Z,53.90
2019-04-03T00:53:50.486Z,54.10
2019-04-03T00:58:55.950Z,53.70
2019-04-03T01:04:00.989Z,52.80
2019-04-03T01:09:07.244Z,51.30
2019-04-03T01:14:12.573Z,50.40
2019-04-03T01:19:17.325Z,51.10
2019-04-03T01:24:22.309Z,50.00
2019-04-03T01:29:28.360Z,50.20
2019-04-03T01:34:33.884Z,50.40
2019-04-03T01:39:39.087Z,49.90
2019-04-03T01:44:44.365Z,49.80
2019-04-03T01:49:49.743Z,49.80
2019-04-03T01:54:54.672Z,49.40
2019-04-03T01:59:59.606Z,49.70
2019-04-03T02:05:05.078Z,50.00
2019-04-03T02:10:17.302Z,49.80
2019-04-03T02:15:22.296Z,50.30
2019-04-03T02:20:27.632Z,50.30
2019-04-03T02:25:32.615Z,50.60
2019-04-03T02:30:37.519Z,50.70
2019-04-03T02:35:41.092Z,51.00
2019-04-03T02:40:44.613Z,51.00
2019-04-03T02:45:48.284Z,51.50
2019-04-03T02:50:52.158Z,52.30
2019-04-03T02:55:55.674Z,52.10
2019-04-03T03:00:59.449Z,52.50
2019-04-03T03:06:04.596Z,52.60
2019-04-03T03:11:10.210Z,53.70
2019-04-03T03:16:18.125Z,54.90
2019-04-03T03:21:21.879Z,55.90
2019-04-03T03:26:26.519Z,55.80
2019-04-03T03:31:59.853Z,55.80
2019-04-03T03:36:39.334Z,55.30
2019-04-03T03:41:44.047Z,55.70
2019-04-03T03:46:48.673Z,55.70
2019-04-03T03:51:54.922Z,56.30
2019-04-03T03:57:03.927Z,58.10
2019-04-03T04:02:06.790Z,59.70
2019-04-03T04:07:11.875Z,59.10
2019-04-03T04:12:16.963Z,60.80
2019-04-03T04:17:21.873Z,61.00
2019-04-03T04:22:28.272Z,60.90
2019-04-03T04:27:37.899Z,63.10
2019-04-03T04:32:40.788Z,65.50
2019-04-03T04:37:47.092Z,68.00
2019-04-03T04:42:52.524Z,68.10
2019-04-03T04:47:57.764Z,69.00
2019-04-03T04:53:04.212Z,71.90
2019-04-03T04:58:09.663Z,72.20
2019-04-03T05:03:16.564Z,73.20
2019-04-03T05:08:22.633Z,74.20
2019-04-03T05:13:28.408Z,73.40
2019-04-03T05:18:33.683Z,74.00
2019-04-03T05:23:39.239Z,74.80
2019-04-03T05:28:55.751Z,75.00
2019-04-03T05:33:52.767Z,74.70
2019-04-03T05:38:58.911Z,75.80
2019-04-03T05:44:04.815Z,75.70
2019-04-03T05:49:11.007Z,76.10
2019-04-03T05:54:16.275Z,75.90
2019-04-03T05:59:21.808Z,75.80
2019-04-03T06:04:26.981Z,74.30
2019-04-03T06:09:32.221Z,73.50
2019-04-03T06:14:37.352Z,73.10
2019-04-03T06:19:42.439Z,73.40
2019-04-03T06:24:47.539Z,74.70
2019-04-03T06:29:55.027Z,74.30
2019-04-03T06:35:00.517Z,70.30
2019-04-03T06:40:07.004Z,70.00
2019-04-03T06:45:15.388Z,69.00
2019-04-03T06:50:20.285Z,69.80
2019-04-03T06:55:25.955Z,68.20
2019-04-03T07:00:31.037Z,66.50
2019-04-03T07:05:35.988Z,64.20
2019-04-03T07:10:41.165Z,64.80
2019-04-03T07:15:46.733Z,66.50
2019-04-03T07:20:52.733Z,67.70
2019-04-03T07:25:58.382Z,64.20
2019-04-03T07:31:04.403Z,65.30
2019-04-03T07:36:10.802Z,66.30
2019-04-03T07:41:15.118Z,66.20
2019-04-03T07:46:19.735Z,65.60
2019-04-03T07:51:24.117Z,64.70
2019-04-03T07:56:29.985Z,63.80
2019-04-03T08:01:34.222Z,61.70
2019-04-03T08:06:39.722Z,60.60
2019-04-03T08:11:44.316Z,61.80
2019-04-03T08:16:49.751Z,63.20
2019-04-03T08:21:55.265Z,63.80
2019-04-03T08:27:00.793Z,66.00
2019-04-03T08:32:06.501Z,68.70
2019-04-03T08:37:12.914Z,69.80
2019-04-03T08:42:19.164Z,71.60
2019-04-03T08:47:25.316Z,72.40
2019-04-03T08:52:30.867Z,74.20
2019-04-03T08:57:36.470Z,74.90
2019-04-03T09:02:43.477Z,75.50
2019-04-03T09:07:49.212Z,77.50
2019-04-03T09:12:54.479Z,71.00
2019-04-03T09:17:59.748Z,71.60
2019-04-03T09:23:17.010Z,73.60
2019-04-03T09:28:21.891Z,72.20
2019-04-03T09:33:29.377Z,74.10
2019-04-03T09:38:36.335Z,78.10
2019-04-03T09:43:42.201Z,77.10
2019-04-03T09:48:48.520Z,76.20
2019-04-03T09:53:54.102Z,74.60
2019-04-03T09:58:59.945Z,71.40
2019-04-03T10:04:05.716Z,71.80
2019-04-03T10:09:12.029Z,69.60
2019-04-03T10:14:18.102Z,72.60
2019-04-03T10:19:23.830Z,73.20
2019-04-03T10:24:30.863Z,76.30
2019-04-03T10:29:35.893Z,73.90
2019-04-03T10:34:41.461Z,72.70
2019-04-03T10:39:46.498Z,75.00
2019-04-03T10:44:52.685Z,76.50
2019-04-03T10:49:58.577Z,76.00
2019-04-03T10:55:04.800Z,73.60
2019-04-03T11:00:13.306Z,73.70
2019-04-03T11:05:20.516Z,74.70
2019-04-03T11:10:26.190Z,78.90
2019-04-03T11:15:31.459Z,70.50
2019-04-03T11:20:37.127Z,71.30
2019-04-03T11:25:45.776Z,71.20
2019-04-03T11:30:49.623Z,71.70
2019-04-03T11:35:54.810Z,72.90
2019-04-03T11:41:11.359Z,72.60
2019-04-03T11:46:06.552Z,67.00
2019-04-03T11:51:10.949Z,65.90
2019-04-03T11:56:16.416Z,69.80
2019-04-03T12:01:20.319Z,66.00
2019-04-03T12:06:25.256Z,65.90
2019-04-03T12:11:29.993Z,69.20
2019-04-03T12:16:33.713Z,67.00
2019-04-03T12:21:38.084Z,67.20
2019-04-03T12:26:43.588Z,68.00
2019-04-03T12:31:49.294Z,65.10
2019-04-03T12:36:53.668Z,63.40
2019-04-03T12:41:58.300Z,67.00
2019-04-03T12:47:05.082Z,63.50
2019-04-03T12:52:09.245Z,65.10
2019-04-03T12:57:13.598Z,68.00
2019-04-03T13:02:19.063Z,63.90
2019-04-03T13:07:25.074Z,65.40
2019-04-03T13:12:30.432Z,62.00
2019-04-03T13:17:35.939Z,64.00
2019-04-03T13:22:42.569Z,65.00
2019-04-03T13:27:49.716Z,64.40
2019-04-03T13:32:59.574Z,60.70
2019-04-03T13:38:02.698Z,63.50
2019-04-03T13:43:07.687Z,65.60
2019-04-03T13:48:13.878Z,62.30
2019-04-03T13:53:20.964Z,64.40
2019-04-03T13:58:28.494Z,59.50
2019-04-03T14:03:33.568Z,61.90
2019-04-03T14:08:39.119Z,57.10
2019-04-03T14:13:44.433Z,62.00
2019-04-03T14:18:51.222Z,58.00
2019-04-03T14:23:56.855Z,61.00
2019-04-03T14:29:02.414Z,58.00
2019-04-03T14:34:08.995Z,62.70
2019-04-03T14:39:14.490Z,58.40
2019-04-03T14:44:20.616Z,58.00
2019-04-03T14:49:30.835Z,56.80
2019-04-03T14:54:34.551Z,57.40
2019-04-03T14:59:39.723Z,58.40
2019-04-03T15:04:45.385Z,61.90
2019-04-03T15:09:50.421Z,60.70
2019-04-03T15:14:56.018Z,62.70
2019-04-03T15:20:01.397Z,60.90
2019-04-03T15:25:07.977Z,60.50
2019-04-03T15:30:14.495Z,62.00
2019-04-03T15:35:19.946Z,63.70
2019-04-03T15:40:26.394Z,63.50
2019-04-03T15:45:32.434Z,66.60
2019-04-03T15:50:39.082Z,67.00
2019-04-03T15:55:44.720Z,63.90
2019-04-03T16:00:50.640Z,67.00
2019-04-03T16:05:56.466Z,69.40
2019-04-03T16:11:05.964Z,71.60
2019-04-03T16:16:11.566Z,73.70
2019-04-03T16:21:16.667Z,78.00
2019-04-03T16:26:23.868Z,77.20
2019-04-03T16:36:56.648Z,77.10
2019-04-03T16:42:02.475Z,76.80
2019-04-03T16:47:08.402Z,77.30
2019-04-03T16:52:14.521Z,80.60
2019-04-03T16:57:22.567Z,81.50
2019-04-03T17:02:29.111Z,80.90
2019-04-03T17:07:37.435Z,82.70
2019-04-03T17:12:45.206Z,81.90
2019-04-03T17:17:50.015Z,80.70
2019-04-03T17:22:55.816Z,82.20
2019-04-03T17:28:07.385Z,80.60
2019-04-03T17:33:10.930Z,81.40
2019-04-03T17:38:16.402Z,82.00
2019-04-03T17:43:24.996Z,82.90
2019-04-03T17:48:30.066Z,81.70
2019-04-03T17:53:44.384Z,84.10
2019-04-03T18:04:04.671Z,83.70
2019-04-03T18:09:10.369Z,85.10
2019-04-03T18:14:15.954Z,88.50
2019-04-03T18:19:21.370Z,85.60
2019-04-03T18:24:33.800Z,85.70
2019-04-03T18:29:39.521Z,86.40
2019-04-03T18:34:48.406Z,86.30
2019-04-03T18:39:52.459Z,82.50
2019-04-03T18:44:57.841Z,86.10
2019-04-03T18:50:10.410Z,84.80
2019-04-03T18:55:15.974Z,85.30
2019-04-03T19:00:30.729Z,85.20
2019-04-03T19:05:36.546Z,84.20
2019-04-03T19:11:01.519Z,84.80
2019-04-03T19:16:02.009Z,82.00
2019-04-03T19:21:05.377Z,82.80
2019-04-03T19:26:19.159Z,84.20
2019-04-03T19:31:23.388Z,81.20
2019-04-03T19:36:29.657Z,83.70
2019-04-03T19:41:32.599Z,83.20
2019-04-03T19:46:36.632Z,83.30
2019-04-03T19:51:41.193Z,81.50
2019-04-03T19:56:51.300Z,83.20
2019-04-03T20:02:05.765Z,79.90
2019-04-03T20:07:13.372Z,79.60
2019-04-03T20:12:24.485Z,81.50
2019-04-03T20:17:34.751Z,82.70
2019-04-03T20:22:42.411Z,79.90
2019-04-03T20:27:51.433Z,80.00
2019-04-03T20:33:00.558Z,84.40
2019-04-03T20:38:07.410Z,84.70
2019-04-03T20:43:13.048Z,86.30
2019-04-03T20:48:18.703Z,86.80
2019-04-03T20:53:31.491Z,86.40
2019-04-03T20:58:39.952Z,86.60
2019-04-03T21:03:44.310Z,89.00
2019-04-03T21:08:49.938Z,89.70
2019-04-03T21:13:54.936Z,88.30
2019-04-03T21:19:00.154Z,89.80
2019-04-03T21:24:05.632Z,87.60
2019-04-03T21:29:10.997Z,85.30
2019-04-03T21:34:16.157Z,85.60
2019-04-03T21:39:22.262Z,88.70
2019-04-03T21:44:27.649Z,87.40
2019-04-03T21:49:32.602Z,87.50
2019-04-03T21:54:40.268Z,85.50
2019-04-03T21:59:51.461Z,86.00
2019-04-03T22:04:57.943Z,86.60
2019-04-03T22:10:09.371Z,87.10
2019-04-03T22:15:15.778Z,85.00
2019-04-03T22:20:20.964Z,85.10
2019-04-03T22:25:25.926Z,84.40
2019-04-03T22:30:31.160Z,82.30
2019-04-03T22:35:36.306Z,83.60
2019-04-03T22:40:41.932Z,84.00
2019-04-03T22:45:46.926Z,83.50
2019-04-03T22:50:51.853Z,84.00
2019-04-03T22:55:56.715Z,85.40
2019-04-03T23:01:01.077Z,82.80
2019-04-03T23:06:06.185Z,84.30
2019-04-03T23:11:10.367Z,84.20
2019-04-03T23:16:16.264Z,82.10
2019-04-03T23:21:23.507Z,83.60
2019-04-03T23:26:26.673Z,83.10
2019-04-03T23:31:30.786Z,84.60
2019-04-03T23:36:34.809Z,83.10
2019-04-03T23:41:38.967Z,83.50
2019-04-03T23:46:45.503Z,84.30
2019-04-03T23:51:50.999Z,84.80
2019-04-03T23:56:56.252Z,83.60
